createdAt,value
2023-05-07T00:00:41.247Z,18.33
2023-05-07T00:03:44.574Z,17.07
2023-05-07T00:06:47.693Z,18.00
2023-05-07T00:09:50.786Z,18.40
2023-05-07T00:12:54.021Z,17.83
2023-05-07T00:15:58.479Z,16.93
2023-05-07T00:19:01.506Z,16.83
2023-05-07T00:22:04.588Z,16.57
2023-05-07T00:25:08.712Z,17.20
2023-05-07T00:28:11.794Z,15.83
2023-05-07T00:31:16.260Z,17.03
2023-05-07T00:34:19.478Z,16.17
2023-05-07T00:37:22.513Z,16.67
2023-05-07T00:40:25.702Z,16.43
2023-05-07T00:43:29.715Z,16.63
2023-05-07T00:46:35.732Z,17.20
2023-05-07T00:49:42.266Z,17.83
2023-05-07T00:52:45.691Z,16.67
2023-05-07T00:55:48.744Z,16.10
2023-05-07T00:58:52.070Z,16.60
2023-05-07T01:01:56.711Z,17.53
2023-05-07T01:05:00.002Z,15.77
2023-05-07T01:08:04.474Z,16.90
2023-05-07T01:11:09.208Z,19.30
2023-05-07T01:14:12.565Z,17.17
2023-05-07T01:17:17.479Z,17.63
2023-05-07T01:20:22.399Z,17.50
2023-05-07T01:23:30.258Z,16.93
2023-05-07T01:26:33.464Z,16.80
2023-05-07T01:29:37.064Z,15.67
2023-05-07T01:32:45.762Z,15.87
2023-05-07T01:35:53.911Z,15.97
2023-05-07T01:38:59.882Z,15.23
2023-05-07T01:42:03.308Z,16.60
2023-05-07T01:45:08.259Z,16.33
2023-05-07T01:48:13.594Z,15.23
2023-05-07T01:51:17.661Z,16.20
2023-05-07T01:54:28.609Z,16.47
2023-05-07T01:57:32.419Z,15.27
2023-05-07T02:00:37.013Z,15.33
2023-05-07T02:03:40.772Z,15.17
2023-05-07T02:06:51.625Z,15.23
2023-05-07T02:09:56.804Z,16.67
2023-05-07T02:13:00.704Z,16.03
2023-05-07T02:16:04.139Z,16.03
2023-05-07T02:19:07.210Z,16.67
2023-05-07T02:22:12.502Z,17.23
2023-05-07T02:25:17.164Z,15.97
2023-05-07T02:28:20.349Z,15.63
2023-05-07T02:31:30.399Z,16.00
2023-05-07T02:34:33.637Z,15.83
2023-05-07T02:37:36.934Z,15.07
2023-05-07T02:40:41.699Z,15.57
2023-05-07T02:43:44.862Z,15.77
2023-05-07T02:46:48.489Z,16.03
2023-05-07T02:49:51.702Z,15.87
2023-05-07T02:52:54.766Z,16.03
2023-05-07T02:56:01.240Z,16.50
2023-05-07T02:59:04.512Z,14.70
2023-05-07T03:02:11.128Z,17.17
2023-05-07T03:05:15.413Z,16.07
2023-05-07T03:08:19.731Z,16.10
2023-05-07T03:11:24.135Z,16.27
2023-05-07T03:14:27.219Z,15.43
2023-05-07T03:17:30.945Z,15.87
2023-05-07T03:20:34.447Z,15.57
2023-05-07T03:23:37.701Z,17.03
2023-05-07T03:26:42.060Z,21.17
2023-05-07T03:29:45.281Z,16.75
2023-05-07T03:32:48.447Z,18.33
2023-05-07T03:35:51.729Z,17.63
2023-05-07T03:38:59.473Z,16.83
2023-05-07T03:42:12.736Z,19.17
2023-05-07T03:45:16.529Z,16.93
2023-05-07T03:48:24.261Z,15.37
2023-05-07T03:51:29.492Z,15.83
2023-05-07T03:54:32.708Z,16.50
2023-05-07T03:57:37.241Z,16.50
2023-05-07T04:00:41.530Z,16.60
2023-05-07T04:03:59.958Z,14.57
2023-05-07T04:07:04.038Z,15.43
2023-05-07T04:10:11.183Z,15.10
2023-05-07T04:13:18.213Z,15.17
2023-05-07T04:16:21.426Z,14.60
2023-05-07T04:19:26.318Z,16.97
2023-05-07T04:22:30.709Z,15.20
2023-05-07T04:25:34.077Z,17.60
2023-05-07T04:28:45.985Z,18.93
2023-05-07T04:31:49.542Z,15.77
2023-05-07T04:34:52.862Z,14.80
2023-05-07T04:37:56.362Z,17.80
2023-05-07T04:41:00.567Z,15.50
2023-05-07T04:44:06.939Z,14.10
2023-05-07T04:47:11.630Z,12.27
2023-05-07T04:50:14.815Z,12.37
2023-05-07T04:53:19.763Z,12.13
2023-05-07T04:56:23.088Z,12.40
2023-05-07T04:59:27.450Z,11.80
2023-05-07T05:02:30.953Z,12.60
2023-05-07T05:05:34.242Z,12.03
2023-05-07T05:08:39.421Z,10.67
2023-05-07T05:11:42.558Z,11.00
2023-05-07T05:14:47.205Z,10.50
2023-05-07T05:17:50.966Z,10.47
2023-05-07T05:20:54.835Z,11.50
2023-05-07T05:23:58.498Z,11.90
2023-05-07T05:27:03.090Z,11.83
2023-05-07T05:30:11.180Z,12.20
2023-05-07T05:33:15.847Z,10.67
2023-05-07T05:36:19.224Z,12.70
2023-05-07T05:39:24.218Z,12.07
2023-05-07T05:42:27.764Z,12.13
2023-05-07T05:45:33.379Z,12.97
2023-05-07T05:48:36.580Z,11.80
2023-05-07T05:51:41.656Z,11.50
2023-05-07T05:54:45.405Z,11.50
2023-05-07T05:57:48.715Z,12.30
2023-05-07T06:00:54.316Z,12.50
2023-05-07T06:04:01.061Z,11.83
2023-05-07T06:07:04.187Z,12.10
2023-05-07T06:10:09.431Z,11.10
2023-05-07T06:13:13.127Z,11.03
2023-05-07T06:16:18.586Z,12.70
2023-05-07T06:19:24.888Z,12.27
2023-05-07T06:22:30.359Z,11.90
2023-05-07T06:25:33.723Z,12.20
2023-05-07T06:28:37.528Z,11.17
2023-05-07T06:31:44.985Z,11.63
2023-05-07T06:34:48.424Z,12.10
2023-05-07T06:37:52.492Z,11.20
2023-05-07T06:41:00.053Z,10.83
2023-05-07T06:44:03.463Z,11.70
2023-05-07T06:47:16.156Z,11.23
2023-05-07T06:50:22.174Z,11.93
2023-05-07T06:53:26.867Z,10.70
2023-05-07T06:56:32.123Z,10.47
2023-05-07T06:59:35.849Z,10.30
2023-05-07T07:02:40.806Z,9.63
2023-05-07T07:05:44.615Z,9.63
2023-05-07T07:08:48.124Z,11.30
2023-05-07T07:11:53.404Z,11.53
2023-05-07T07:14:56.552Z,10.40
2023-05-07T07:18:01.854Z,10.03
2023-05-07T07:21:05.866Z,8.33
2023-05-07T07:24:09.037Z,13.17
2023-05-07T07:27:12.206Z,9.07
2023-05-07T07:30:16.141Z,9.80
2023-05-07T07:33:24.610Z,8.57
2023-05-07T07:36:38.910Z,8.07
2023-05-07T07:39:50.404Z,6.87
2023-05-07T07:42:53.779Z,7.23
2023-05-07T07:45:57.094Z,7.17
2023-05-07T07:49:02.227Z,6.60
2023-05-07T07:52:06.174Z,7.30
2023-05-07T07:55:13.101Z,7.47
2023-05-07T07:58:17.220Z,7.50
2023-05-07T08:01:20.707Z,7.27
2023-05-07T08:04:26.250Z,7.20
2023-05-07T08:07:31.670Z,6.77
2023-05-07T08:10:39.126Z,7.57
2023-05-07T08:13:48.551Z,6.13
2023-05-07T08:16:51.972Z,5.37
2023-05-07T08:19:57.018Z,5.47
2023-05-07T08:23:00.418Z,6.07
2023-05-07T08:26:04.457Z,4.97
2023-05-07T08:29:07.749Z,5.90
2023-05-07T08:32:11.193Z,6.17
2023-05-07T08:35:15.635Z,5.27
2023-05-07T08:38:18.913Z,5.13
2023-05-07T08:41:24.937Z,5.63
2023-05-07T08:44:29.878Z,4.97
2023-05-07T08:47:42.623Z,5.00
2023-05-07T08:50:47.319Z,5.30
2023-05-07T08:53:51.592Z,5.50
2023-05-07T08:57:01.987Z,6.20
2023-05-07T09:00:07.988Z,5.95
2023-05-07T09:03:13.823Z,4.60
2023-05-07T09:06:21.289Z,5.13
2023-05-07T09:09:24.576Z,5.47
2023-05-07T09:12:30.691Z,4.93
2023-05-07T09:15:34.846Z,5.60
2023-05-07T09:18:43.428Z,4.95
2023-05-07T09:21:50.076Z,5.28
2023-05-07T09:24:54.661Z,4.93
2023-05-07T09:28:02.720Z,5.13
2023-05-07T09:31:06.313Z,4.75
2023-05-07T09:34:09.763Z,4.75
2023-05-07T09:37:18.684Z,5.22
2023-05-07T09:40:23.947Z,4.80
2023-05-07T09:43:28.088Z,4.13
2023-05-07T09:46:37.296Z,4.70
2023-05-07T09:49:49.958Z,4.23
2023-05-07T09:52:59.282Z,4.32
2023-05-07T09:56:05.310Z,3.20
2023-05-07T09:59:10.573Z,3.92
2023-05-07T10:02:15.574Z,3.67
2023-05-07T10:05:24.669Z,3.70
2023-05-07T10:08:33.037Z,3.10
2023-05-07T10:11:40.291Z,3.85
2023-05-07T10:14:44.065Z,3.50
2023-05-07T10:17:47.872Z,3.40
2023-05-07T10:20:54.186Z,5.10
2023-05-07T10:24:02.390Z,3.05
2023-05-07T10:27:15.364Z,3.42
2023-05-07T10:30:38.283Z,3.63
2023-05-07T10:33:43.649Z,2.78
2023-05-07T10:36:47.804Z,3.10
2023-05-07T10:39:53.512Z,3.13
2023-05-07T10:43:00.453Z,3.25
2023-05-07T10:46:15.647Z,3.13
2023-05-07T10:49:24.647Z,3.95
2023-05-07T10:52:34.844Z,3.38
2023-05-07T10:55:52.371Z,3.10
2023-05-07T10:59:42.602Z,2.63
2023-05-07T11:03:36.764Z,3.15
2023-05-07T11:06:44.001Z,3.33
2023-05-07T11:10:06.342Z,3.63
2023-05-07T11:13:47.215Z,3.45
2023-05-07T11:17:15.738Z,3.67
2023-05-07T11:20:56.896Z,3.22
2023-05-07T11:24:23.550Z,3.30
2023-05-07T11:27:31.944Z,3.50
2023-05-07T11:30:35.246Z,4.07
2023-05-07T11:33:40.475Z,4.40
2023-05-07T11:36:50.122Z,3.53
2023-05-07T11:40:07.634Z,3.25
2023-05-07T11:43:13.117Z,3.60
2023-05-07T11:46:16.400Z,3.60
2023-05-07T11:49:20.389Z,3.28
2023-05-07T11:52:26.422Z,3.53
2023-05-07T11:55:29.906Z,3.22
2023-05-07T11:58:33.232Z,3.67
2023-05-07T12:01:38.018Z,3.60
2023-05-07T12:04:41.616Z,3.35
2023-05-07T12:07:46.133Z,3.45
2023-05-07T12:10:52.554Z,3.08
2023-05-07T12:13:59.834Z,2.90
2023-05-07T12:17:04.181Z,3.10
2023-05-07T12:20:09.494Z,3.67
2023-05-07T12:23:15.123Z,3.53
2023-05-07T12:26:18.367Z,3.50
2023-05-07T12:29:23.939Z,3.40
2023-05-07T12:32:27.216Z,3.22
2023-05-07T12:35:32.523Z,3.20
2023-05-07T12:38:40.975Z,3.00
2023-05-07T12:41:57.602Z,3.67
2023-05-07T12:45:00.673Z,2.83
2023-05-07T12:48:04.465Z,3.25
2023-05-07T12:51:08.997Z,8.15
2023-05-07T12:54:13.656Z,4.00
2023-05-07T12:57:16.708Z,13.23
2023-05-07T13:00:20.406Z,8.48
2023-05-07T13:03:26.019Z,5.40
2023-05-07T13:06:30.549Z,4.47
2023-05-07T13:09:35.196Z,3.70
2023-05-07T13:12:38.307Z,3.10
2023-05-07T13:15:41.359Z,4.50
2023-05-07T13:18:46.879Z,3.42
2023-05-07T13:21:50.682Z,3.38
2023-05-07T13:24:57.000Z,3.22
2023-05-07T13:28:10.043Z,3.30
2023-05-07T13:31:13.636Z,3.00
2023-05-07T13:34:16.769Z,3.72
2023-05-07T13:37:19.829Z,3.78
2023-05-07T13:40:24.649Z,3.92
2023-05-07T13:43:27.714Z,2.60
2023-05-07T13:46:31.572Z,3.30
2023-05-07T13:49:34.654Z,3.22
2023-05-07T13:52:37.708Z,2.80
2023-05-07T13:55:44.632Z,3.30
2023-05-07T13:58:58.822Z,3.20
2023-05-07T14:02:02.979Z,2.95
2023-05-07T14:05:07.108Z,3.17
2023-05-07T14:08:10.346Z,3.50
2023-05-07T14:11:14.713Z,3.28
2023-05-07T14:14:18.149Z,3.08
2023-05-07T14:17:24.141Z,3.40
2023-05-07T14:20:27.846Z,3.40
2023-05-07T14:23:31.098Z,2.90
2023-05-07T14:26:35.711Z,3.30
2023-05-07T14:29:38.764Z,3.40
2023-05-07T14:32:41.854Z,2.90
2023-05-07T14:35:48.923Z,3.05
2023-05-07T14:38:54.015Z,3.05
2023-05-07T14:41:59.452Z,3.05
2023-05-07T14:45:06.476Z,3.20
2023-05-07T14:48:10.374Z,2.83
2023-05-07T14:51:15.273Z,3.20
2023-05-07T14:54:18.485Z,3.15
2023-05-07T14:57:23.007Z,3.08
2023-05-07T15:00:26.269Z,3.00
2023-05-07T15:03:29.866Z,2.80
2023-05-07T15:06:33.367Z,3.67
2023-05-07T15:09:36.415Z,2.88
2023-05-07T15:12:40.896Z,2.90
2023-05-07T15:15:45.585Z,3.00
2023-05-07T15:18:51.473Z,3.08
2023-05-07T15:21:54.610Z,2.78
2023-05-07T15:24:58.263Z,2.70
2023-05-07T15:28:02.927Z,3.30
2023-05-07T15:31:06.289Z,2.50
2023-05-07T15:34:09.606Z,2.80
2023-05-07T15:37:12.762Z,2.55
2023-05-07T15:40:15.920Z,3.08
2023-05-07T15:43:20.421Z,2.67
2023-05-07T15:46:25.645Z,2.92
2023-05-07T15:49:28.939Z,2.80
2023-05-07T15:52:32.533Z,2.83
2023-05-07T15:55:35.645Z,2.90
2023-05-07T15:58:40.008Z,2.97
2023-05-07T16:01:43.510Z,2.90
2023-05-07T16:04:47.505Z,2.75
2023-05-07T16:07:51.427Z,3.42
2023-05-07T16:10:54.540Z,3.08
2023-05-07T16:14:00.758Z,3.03
2023-05-07T16:17:03.859Z,2.78
2023-05-07T16:20:09.649Z,2.95
2023-05-07T16:23:26.752Z,3.08
2023-05-07T16:26:30.830Z,2.85
2023-05-07T16:29:35.313Z,3.38
2023-05-07T16:32:38.439Z,3.25
2023-05-07T16:35:41.615Z,2.55
2023-05-07T16:38:44.906Z,3.97
2023-05-07T16:41:50.614Z,3.08
2023-05-07T16:44:55.110Z,2.80
2023-05-07T16:47:58.699Z,2.88
2023-05-07T16:51:02.187Z,3.40
2023-05-07T16:54:05.361Z,2.90
2023-05-07T16:57:08.470Z,2.73
2023-05-07T17:00:19.705Z,3.50
2023-05-07T17:03:24.034Z,2.58
2023-05-07T17:06:27.979Z,2.58
2023-05-07T17:09:31.073Z,2.83
2023-05-07T17:12:35.826Z,2.95
2023-05-07T17:15:41.243Z,3.10
2023-05-07T17:18:54.234Z,2.90
2023-05-07T17:21:57.571Z,3.17
2023-05-07T17:25:04.287Z,3.43
2023-05-07T17:28:07.381Z,3.53
2023-05-07T17:31:11.856Z,3.67
2023-05-07T17:34:15.551Z,3.10
2023-05-07T17:37:18.861Z,3.00
2023-05-07T17:40:24.759Z,3.13
2023-05-07T17:43:27.920Z,3.10
2023-05-07T17:46:32.744Z,3.30
2023-05-07T17:49:54.426Z,3.10
2023-05-07T17:53:00.761Z,3.30
2023-05-07T17:56:03.811Z,3.00
2023-05-07T17:59:06.944Z,3.03
2023-05-07T18:05:45.060Z,2.77
2023-05-07T18:08:49.027Z,3.10
2023-05-07T18:11:55.042Z,3.87
2023-05-07T18:15:01.182Z,4.73
2023-05-07T18:18:06.981Z,3.20
2023-05-07T18:21:18.563Z,3.10
2023-05-07T18:24:25.339Z,3.00
2023-05-07T18:27:29.198Z,3.47
2023-05-07T18:30:34.928Z,3.60
2023-05-07T18:34:04.164Z,4.00
2023-05-07T18:37:09.874Z,3.00
2023-05-07T18:40:22.469Z,3.33
2023-05-07T18:43:35.050Z,3.07
2023-05-07T18:46:51.313Z,3.20
2023-05-07T18:49:58.730Z,3.43
2023-05-07T18:53:02.799Z,3.80
2023-05-07T18:56:10.389Z,3.20
2023-05-07T18:59:14.054Z,3.73
2023-05-07T19:02:24.745Z,3.10
2023-05-07T19:05:29.393Z,3.33
2023-05-07T19:08:32.952Z,3.40
2023-05-07T19:11:36.000Z,3.50
2023-05-07T19:14:41.173Z,3.77
2023-05-07T19:17:44.402Z,3.30
2023-05-07T19:20:52.096Z,3.30
2023-05-07T19:23:58.152Z,3.73
2023-05-07T19:27:01.709Z,3.33
2023-05-07T19:30:06.343Z,3.90
2023-05-07T19:33:09.663Z,3.60
2023-05-07T19:36:14.296Z,4.17
2023-05-07T19:39:20.472Z,3.93
2023-05-07T19:42:23.717Z,3.43
2023-05-07T19:45:27.126Z,3.10
2023-05-07T19:48:36.849Z,3.97
2023-05-07T19:51:41.777Z,4.10
2023-05-07T19:55:11.481Z,4.30
2023-05-07T19:58:17.089Z,3.87
2023-05-07T20:01:22.269Z,4.20
2023-05-07T20:04:29.881Z,4.10
2023-05-07T20:07:34.349Z,4.67
2023-05-07T20:10:37.474Z,4.70
2023-05-07T20:13:40.530Z,4.20
2023-05-07T20:16:43.696Z,4.20
2023-05-07T20:19:52.801Z,4.80
2023-05-07T20:22:57.337Z,4.30
2023-05-07T20:26:00.389Z,4.50
2023-05-07T20:29:04.383Z,4.37
2023-05-07T20:32:07.690Z,4.03
2023-05-07T20:35:11.420Z,4.77
2023-05-07T20:38:15.840Z,4.43
2023-05-07T20:41:21.051Z,5.33
2023-05-07T20:44:24.543Z,4.70
2023-05-07T20:47:27.858Z,5.63
2023-05-07T20:50:34.074Z,4.70
2023-05-07T20:53:40.583Z,5.27
2023-05-07T20:56:43.665Z,5.27
2023-05-07T20:59:46.984Z,5.33
2023-05-07T21:02:50.357Z,5.60
2023-05-07T21:05:54.492Z,5.30
2023-05-07T21:08:58.780Z,5.37
2023-05-07T21:12:01.775Z,5.20
2023-05-07T21:15:08.967Z,5.83
2023-05-07T21:18:12.548Z,4.87
2023-05-07T21:21:16.476Z,5.23
2023-05-07T21:24:20.815Z,6.40
2023-05-07T21:27:24.327Z,5.70
2023-05-07T21:30:27.415Z,5.40
2023-05-07T21:33:30.495Z,5.07
2023-05-07T21:36:33.527Z,5.70
2023-05-07T21:39:37.963Z,5.03
2023-05-07T21:42:41.133Z,5.40
2023-05-07T21:45:44.148Z,6.90
2023-05-07T21:48:47.673Z,6.33
2023-05-07T21:51:50.797Z,6.47
2023-05-07T21:54:55.253Z,6.27
2023-05-07T21:58:05.400Z,6.87
2023-05-07T22:01:12.395Z,6.07
2023-05-07T22:04:15.568Z,6.10
2023-05-07T22:07:18.639Z,5.87
2023-05-07T22:10:24.019Z,6.50
2023-05-07T22:13:28.918Z,6.47
2023-05-07T22:16:32.160Z,6.63
2023-05-07T22:19:35.464Z,7.37
2023-05-07T22:22:49.340Z,7.90
2023-05-07T22:25:55.860Z,6.73
2023-05-07T22:28:58.975Z,7.03
2023-05-07T22:32:02.292Z,7.23
2023-05-07T22:35:09.158Z,6.13
2023-05-07T22:38:12.271Z,6.70
2023-05-07T22:41:16.595Z,6.67
2023-05-07T22:44:19.907Z,6.70
2023-05-07T22:47:23.448Z,6.97
2023-05-07T22:50:28.521Z,7.10
2023-05-07T22:53:31.546Z,5.80
2023-05-07T22:56:36.107Z,7.03
2023-05-07T22:59:39.248Z,6.47
2023-05-07T23:02:42.856Z,6.70
2023-05-07T23:05:47.812Z,6.90
2023-05-07T23:08:51.356Z,6.87
2023-05-07T23:11:55.828Z,7.60
2023-05-07T23:14:58.875Z,8.00
2023-05-07T23:18:04.141Z,7.53
2023-05-07T23:21:07.834Z,7.10
2023-05-07T23:24:11.498Z,6.37
2023-05-07T23:27:15.925Z,7.20
2023-05-07T23:30:22.213Z,6.33
2023-05-07T23:33:27.597Z,6.67
2023-05-07T23:36:31.512Z,7.13
2023-05-07T23:39:34.582Z,7.00
2023-05-07T23:42:38.928Z,7.70
2023-05-07T23:45:41.993Z,8.40
2023-05-07T23:48:45.050Z,7.77
2023-05-07T23:51:48.208Z,7.40
2023-05-07T23:54:51.207Z,7.70
2023-05-07T23:57:55.534Z,7.97
